Time;durP1;ratioP1;P1;durP2;ratioP2;P2;SDS_P1;SDS_P2;PMS_P1;PMS_P2;Temp;Humidity;BMP_temperature;BMP_pressure;BME280_temperature;BME280_humidity;BME280_pressure;Samples;Min_cycle;Max_cycle;Signal;HPM_P1;HPM_P2
2021/06/17 00:00:01;;;;;;;6.70;3.85;;;20.10;69.30;;;;;;5063980;28;20021;-73
2021/06/17 00:02:28;;;;;;;7.97;4.32;;;20.10;69.40;;;;;;5034892;28;20025;-72
2021/06/17 00:04:53;;;;;;;4.97;4.10;;;20.00;69.50;;;;;;5049154;28;20096;-72
2021/06/17 00:07:19;;;;;;;6.00;4.60;;;20.00;69.70;;;;;;5031822;28;20155;-73
2021/06/17 00:09:45;;;;;;;5.78;4.10;;;20.00;69.50;;;;;;5043306;28;20053;-73
2021/06/17 00:12:11;;;;;;;7.05;4.18;;;20.00;69.60;;;;;;5013466;28;20021;-72
2021/06/17 00:14:36;;;;;;;6.88;4.45;;;19.90;69.70;;;;;;5048370;28;20027;-74
2021/06/17 00:17:03;;;;;;;9.98;4.50;;;19.90;69.70;;;;;;5027172;28;20472;-73
2021/06/17 00:19:29;;;;;;;8.02;4.53;;;19.80;69.70;;;;;;5032402;28;20116;-73
2021/06/17 00:21:55;;;;;;;5.47;4.30;;;19.80;69.80;;;;;;5031980;28;20033;-72
2021/06/17 00:24:21;;;;;;;5.32;4.20;;;19.70;69.60;;;;;;5048970;28;20025;-74
2021/06/17 00:26:49;;;;;;;6.03;4.25;;;19.60;69.50;;;;;;5049475;28;20051;-73
2021/06/17 00:29:16;;;;;;;7.82;4.53;;;19.50;69.90;;;;;;5026773;28;20025;-73
2021/06/17 00:31:41;;;;;;;6.50;4.93;;;19.40;70.20;;;;;;5052691;28;20140;-73
2021/06/17 00:34:09;;;;;;;4.80;4.38;;;19.40;70.50;;;;;;5015479;28;20071;-73
2021/06/17 00:36:35;;;;;;;4.45;4.05;;;19.40;70.70;;;;;;5016370;28;20481;-74
2021/06/17 00:39:01;;;;;;;7.53;4.68;;;19.40;70.50;;;;;;5016573;28;20608;-76
2021/06/17 00:41:27;;;;;;;4.82;4.25;;;19.40;70.70;;;;;;5016245;28;20128;-72
2021/06/17 00:43:52;;;;;;;5.68;4.25;;;19.40;70.80;;;;;;5015049;28;20048;-73
2021/06/17 00:46:18;;;;;;;5.15;4.53;;;19.40;70.90;;;;;;5034249;28;20053;-73
2021/06/17 00:48:43;;;;;;;7.85;4.40;;;19.40;71.10;;;;;;5034278;28;20017;-74
2021/06/17 00:51:09;;;;;;;6.95;4.25;;;19.30;71.10;;;;;;5050564;28;20014;-73
2021/06/17 00:53:35;;;;;;;4.75;3.80;;;19.30;71.10;;;;;;5033907;28;20107;-72
2021/06/17 00:56:03;;;;;;;5.75;4.43;;;19.30;71.10;;;;;;5032854;28;20029;-72
2021/06/17 00:58:29;;;;;;;7.18;4.45;;;19.20;71.40;;;;;;5052962;28;20070;-73
2021/06/17 01:00:55;;;;;;;4.97;4.38;;;19.20;71.40;;;;;;5034549;28;20032;-73
2021/06/17 01:03:22;;;;;;;5.10;4.00;;;19.20;71.40;;;;;;5035533;28;20024;-73
2021/06/17 01:05:48;;;;;;;5.05;4.30;;;19.20;71.50;;;;;;5046254;28;20036;-72
2021/06/17 01:08:31;;;;;;;9.02;4.28;;;19.10;71.50;;;;;;5023105;28;20017;-73
2021/06/17 01:11:09;;;;;;;5.25;3.97;;;19.10;71.80;;;;;;5046050;28;20116;-73
2021/06/17 01:13:41;;;;;;;4.60;4.20;;;19.10;71.90;;;;;;5053297;28;20021;-72
2021/06/17 01:16:10;;;;;;;;;;;19.10;71.50;;;;;;5029381;28;20048;-72
2021/06/17 01:18:40;;;;;;;5.97;4.75;;;19.00;70.70;;;;;;5045233;28;20487;-73
2021/06/17 01:21:13;;;;;;;6.82;4.65;;;19.00;71.30;;;;;;5054946;28;20028;-72
2021/06/17 01:24:03;;;;;;;5.88;4.78;;;18.90;71.40;;;;;;5073404;28;20031;-75
2021/06/17 01:26:44;;;;;;;8.32;4.80;;;18.90;71.70;;;;;;5055535;28;20029;-73
2021/06/17 01:29:17;;;;;;;7.97;5.30;;;18.90;71.70;;;;;;5052887;28;20029;-72
2021/06/17 01:31:43;;;;;;;8.20;5.10;;;18.80;71.80;;;;;;5037628;28;20021;-74
2021/06/17 01:34:11;;;;;;;7.28;4.57;;;18.70;71.60;;;;;;5051829;28;20032;-75
2021/06/17 01:36:42;;;;;;;6.60;4.40;;;18.70;71.80;;;;;;5051438;28;20037;-72
2021/06/17 01:39:11;;;;;;;7.00;4.53;;;18.70;72.20;;;;;;5032008;28;20543;-72
2021/06/17 01:41:39;;;;;;;7.50;4.07;;;18.60;71.90;;;;;;5014582;28;20294;-71
2021/06/17 01:44:08;;;;;;;5.20;3.92;;;18.50;72.00;;;;;;5047118;28;20033;-72
2021/06/17 01:46:34;;;;;;;7.18;4.25;;;18.50;72.00;;;;;;5030978;28;20489;-72
2021/06/17 01:49:01;;;;;;;9.73;4.40;;;18.40;72.20;;;;;;5034526;28;20044;-72
2021/06/17 01:51:29;;;;;;;7.00;4.32;;;18.40;72.30;;;;;;5050800;28;20043;-72
2021/06/17 01:53:55;;;;;;;6.25;4.18;;;18.40;72.50;;;;;;5033474;28;20060;-71
2021/06/17 01:56:23;;;;;;;8.80;3.92;;;18.30;72.60;;;;;;5052425;28;20102;-73
2021/06/17 01:58:56;;;;;;;8.52;4.38;;;18.30;72.80;;;;;;5031538;28;20112;-72
2021/06/17 02:01:23;;;;;;;7.80;4.78;;;18.30;73.30;;;;;;5039347;28;20028;-72
2021/06/17 02:03:50;;;;;;;5.32;4.82;;;18.30;73.10;;;;;;5071757;28;20028;-74
2021/06/17 02:06:18;;;;;;;6.95;4.85;;;18.30;73.00;;;;;;5053806;28;20028;-73
2021/06/17 02:08:47;;;;;;;5.35;4.10;;;18.20;73.30;;;;;;5070290;28;20032;-75
2021/06/17 02:11:15;;;;;;;6.55;4.78;;;18.20;73.30;;;;;;5051847;28;20029;-72
2021/06/17 02:13:42;;;;;;;7.38;4.70;;;18.20;73.30;;;;;;5034242;28;20029;-72
2021/06/17 02:16:08;;;;;;;5.32;4.32;;;18.20;73.30;;;;;;5051134;28;20029;-72
2021/06/17 02:18:35;;;;;;;8.55;4.40;;;18.20;73.10;;;;;;5025502;28;20038;-73
2021/06/17 02:21:03;;;;;;;5.18;4.68;;;18.10;73.30;;;;;;5043882;28;20032;-72
2021/06/17 02:23:32;;;;;;;7.20;5.00;;;18.10;73.40;;;;;;5044885;28;20018;-72
2021/06/17 02:25:58;;;;;;;8.10;4.68;;;18.10;73.70;;;;;;5030911;28;20033;-72
2021/06/17 02:30:55;;;;;;;8.45;5.03;;;18.00;73.60;;;;;;4990440;28;20112;-69
2021/06/17 02:33:23;;;;;;;5.40;4.30;;;18.00;73.70;;;;;;4990598;28;20467;-69
2021/06/17 02:35:52;;;;;;;5.90;4.78;;;18.00;73.80;;;;;;4990884;28;20121;-71
2021/06/17 02:38:26;;;;;;;4.82;4.40;;;17.90;73.90;;;;;;4992157;28;20030;-70
2021/06/17 02:40:58;;;;;;;8.32;4.68;;;17.90;73.90;;;;;;4992125;28;20073;-69
2021/06/17 02:43:24;;;;;;;4.85;4.35;;;17.80;74.00;;;;;;4990670;28;20478;-69
2021/06/17 02:45:50;;;;;;;6.43;4.32;;;17.80;73.90;;;;;;4989790;28;20084;-70
2021/06/17 02:48:17;;;;;;;7.25;4.60;;;17.80;74.00;;;;;;4991810;28;20030;-70
2021/06/17 02:50:44;;;;;;;8.88;4.25;;;17.70;74.00;;;;;;4989266;28;20525;-72
2021/06/17 02:53:09;;;;;;;5.97;4.53;;;17.70;74.10;;;;;;4991972;28;20101;-72
2021/06/17 02:55:36;;;;;;;4.55;4.13;;;17.60;74.30;;;;;;4989775;28;20164;-70
2021/06/17 02:58:16;;;;;;;5.97;4.30;;;17.60;74.40;;;;;;4991737;28;20110;-72
2021/06/17 03:00:50;;;;;;;6.78;4.40;;;17.60;74.90;;;;;;4989475;28;20023;-70
2021/06/17 03:03:44;;;;;;;6.20;4.45;;;17.60;74.70;;;;;;4991807;28;20449;-74
2021/06/17 03:06:19;;;;;;;6.47;4.60;;;17.60;75.10;;;;;;4991308;28;20026;-72
2021/06/17 03:08:54;;;;;;;8.77;4.18;;;17.50;74.90;;;;;;4991793;28;20041;-70
2021/06/17 03:11:21;;;;;;;5.00;4.20;;;17.50;74.90;;;;;;4983442;28;20038;-74
2021/06/17 03:13:52;;;;;;;4.93;4.43;;;17.50;74.70;;;;;;4983867;28;20108;-70
2021/06/17 03:16:23;;;;;;;5.57;4.57;;;17.50;75.00;;;;;;4978685;28;20034;-70
2021/06/17 03:18:50;;;;;;;7.18;4.40;;;17.50;75.20;;;;;;4991909;28;20029;-71
2021/06/17 03:21:17;;;;;;;7.30;4.88;;;17.50;75.30;;;;;;4991795;28;20097;-71
2021/06/17 03:23:44;;;;;;;6.60;4.47;;;17.40;75.20;;;;;;4991941;28;20110;-71
2021/06/17 03:26:12;;;;;;;4.55;4.00;;;17.40;75.10;;;;;;4990728;28;20026;-75
2021/06/17 03:28:39;;;;;;;7.07;4.35;;;17.40;75.20;;;;;;4978324;28;20026;-70
2021/06/17 03:31:11;;;;;;;6.00;4.13;;;17.40;75.20;;;;;;4981667;28;20038;-71
2021/06/17 03:33:39;;;;;;;7.65;4.25;;;17.30;75.40;;;;;;4991603;28;20487;-71
2021/06/17 03:36:07;;;;;;;5.32;4.03;;;17.30;75.30;;;;;;4990140;28;20538;-71
2021/06/17 03:38:35;;;;;;;6.18;4.35;;;17.30;75.40;;;;;;4990426;28;20396;-71
2021/06/17 03:41:03;;;;;;;5.15;4.60;;;17.30;75.40;;;;;;4991454;28;20034;-73
2021/06/17 03:43:30;;;;;;;7.88;4.35;;;17.20;75.50;;;;;;4991656;28;20077;-73
2021/06/17 03:45:58;;;;;;;5.53;4.90;;;17.20;75.50;;;;;;4974387;28;20058;-70
2021/06/17 03:48:23;;;;;;;9.15;5.10;;;17.10;75.50;;;;;;4971803;28;20027;-70
2021/06/17 03:50:50;;;;;;;7.30;5.45;;;17.10;75.70;;;;;;4986156;28;20029;-70
2021/06/17 03:53:18;;;;;;;6.10;4.88;;;17.00;75.90;;;;;;4990166;28;20025;-70
2021/06/17 03:55:44;;;;;;;5.05;4.55;;;17.00;76.00;;;;;;4989987;28;20100;-69
2021/06/17 03:58:11;;;;;;;7.72;5.22;;;17.00;76.00;;;;;;4991015;28;20030;-70
2021/06/17 04:00:37;;;;;;;5.68;5.00;;;17.00;76.10;;;;;;4990635;28;20038;-70
2021/06/17 04:03:08;;;;;;;5.70;5.10;;;17.00;76.10;;;;;;4990256;28;20029;-70
2021/06/17 04:05:38;;;;;;;7.13;4.90;;;17.00;76.20;;;;;;4989560;28;20042;-74
2021/06/17 04:08:08;;;;;;;11.27;5.18;;;17.00;76.10;;;;;;4989509;28;20038;-71
2021/06/17 04:10:34;;;;;;;8.60;5.18;;;17.00;76.10;;;;;;4980942;28;20027;-71
2021/06/17 04:13:00;;;;;;;6.28;4.97;;;17.00;76.00;;;;;;4970070;28;20023;-71
2021/06/17 04:15:27;;;;;;;6.90;5.05;;;17.00;75.80;;;;;;4984372;28;20035;-73
2021/06/17 04:17:59;;;;;;;6.72;5.22;;;17.10;76.20;;;;;;4989045;28;20391;-73
2021/06/17 04:20:39;;;;;;;6.75;5.32;;;17.20;76.60;;;;;;4987674;28;20512;-73
2021/06/17 04:23:06;;;;;;;11.18;5.32;;;17.20;76.30;;;;;;4990712;28;20157;-73
2021/06/17 04:25:33;;;;;;;8.10;5.10;;;17.20;76.20;;;;;;4989548;28;20390;-71
2021/06/17 04:28:02;;;;;;;7.85;5.28;;;17.30;76.00;;;;;;4988752;28;20114;-73
2021/06/17 04:30:29;;;;;;;6.80;5.18;;;17.30;75.90;;;;;;4990283;28;20092;-72
2021/06/17 04:32:57;;;;;;;5.53;5.00;;;17.30;76.00;;;;;;4988678;28;20018;-73
2021/06/17 04:35:26;;;;;;;9.13;4.63;;;17.40;76.20;;;;;;4988664;28;20053;-72
2021/06/17 04:37:52;;;;;;;8.15;5.82;;;17.50;76.00;;;;;;4988943;28;20168;-71
2021/06/17 04:40:20;;;;;;;7.38;5.35;;;17.50;76.00;;;;;;4989362;28;20463;-72
2021/06/17 04:42:47;;;;;;;7.13;5.70;;;17.60;76.30;;;;;;4988490;28;20393;-70
2021/06/17 04:45:13;;;;;;;10.98;5.88;;;17.70;76.30;;;;;;4981992;28;20034;-71
2021/06/17 04:47:40;;;;;;;7.78;5.43;;;17.80;76.40;;;;;;4988686;28;20028;-69
2021/06/17 04:50:08;;;;;;;6.60;5.10;;;18.00;76.50;;;;;;4990137;28;20453;-71
2021/06/17 04:52:39;;;;;;;9.25;6.10;;;18.10;76.50;;;;;;4990095;28;20113;-70
2021/06/17 04:55:05;;;;;;;8.25;5.90;;;18.10;76.60;;;;;;4988779;28;20125;-70
2021/06/17 04:57:31;;;;;;;7.20;5.32;;;18.10;75.80;;;;;;4988866;28;20026;-69
2021/06/17 04:59:57;;;;;;;6.60;5.47;;;18.10;76.00;;;;;;4988223;28;20505;-69
2021/06/17 05:02:23;;;;;;;9.68;5.57;;;18.20;76.20;;;;;;4990001;28;20069;-70
2021/06/17 05:04:48;;;;;;;8.45;6.13;;;18.30;76.20;;;;;;4989461;28;20030;-70
2021/06/17 05:12:23;;;;;;;6.78;5.80;;;18.60;76.20;;;;;;4991136;28;20037;-70
2021/06/17 05:14:49;;;;;;;6.85;5.97;;;18.70;76.20;;;;;;4991906;28;20026;-70
2021/06/17 05:17:15;;;;;;;7.70;5.60;;;18.70;76.30;;;;;;4994323;28;20038;-70
2021/06/17 05:19:40;;;;;;;6.82;5.80;;;18.80;76.30;;;;;;4986924;28;20480;-70
2021/06/17 05:22:09;;;;;;;8.90;5.18;;;18.90;76.50;;;;;;4994276;28;20018;-70
2021/06/17 05:24:35;;;;;;;9.32;5.43;;;19.00;76.60;;;;;;4991865;28;20072;-70
2021/06/17 05:27:00;;;;;;;10.52;5.95;;;19.10;76.60;;;;;;4990342;28;20030;-70
2021/06/17 05:29:26;;;;;;;7.97;5.78;;;19.20;76.80;;;;;;4993830;28;20467;-70
2021/06/17 05:31:52;;;;;;;11.15;5.43;;;19.40;76.70;;;;;;4994154;28;20022;-69
2021/06/17 05:34:17;;;;;;;8.15;5.40;;;19.60;76.60;;;;;;4992582;28;20470;-70
2021/06/17 05:36:43;;;;;;;6.30;5.18;;;19.70;76.70;;;;;;4993826;28;20028;-70
2021/06/17 05:39:08;;;;;;;8.07;4.97;;;19.90;75.80;;;;;;4994186;28;20113;-69
2021/06/17 05:41:34;;;;;;;13.27;4.85;;;20.00;75.30;;;;;;4994070;28;20038;-69
2021/06/17 05:44:00;;;;;;;8.63;5.40;;;20.10;75.00;;;;;;4992953;28;20042;-71
2021/06/17 05:46:26;;;;;;;8.70;5.22;;;20.20;75.00;;;;;;4993438;28;20026;-70
2021/06/17 05:48:51;;;;;;;8.38;5.60;;;20.40;75.00;;;;;;4993917;28;20030;-70
2021/06/17 05:51:17;;;;;;;7.45;5.30;;;20.50;74.80;;;;;;4993384;28;20033;-70
2021/06/17 05:53:45;;;;;;;10.65;4.93;;;20.70;74.40;;;;;;4992112;28;20018;-69
2021/06/17 05:56:10;;;;;;;10.80;5.15;;;20.90;74.20;;;;;;4992569;28;20061;-70
2021/06/17 05:58:36;;;;;;;6.53;4.40;;;21.00;73.90;;;;;;4992031;28;20054;-70
2021/06/17 06:01:02;;;;;;;8.25;4.75;;;21.20;73.80;;;;;;4993596;28;20514;-69
2021/06/17 06:03:28;;;;;;;9.98;5.03;;;21.30;73.50;;;;;;4993352;28;20080;-69
2021/06/17 06:05:54;;;;;;;9.27;4.63;;;21.40;73.20;;;;;;4991997;28;20030;-71
2021/06/17 06:08:19;;;;;;;5.55;4.88;;;21.60;73.10;;;;;;4993479;28;20069;-72
2021/06/17 06:10:45;;;;;;;6.28;4.63;;;21.70;72.80;;;;;;4985100;28;20025;-72
2021/06/17 06:13:11;;;;;;;6.85;4.40;;;21.90;72.20;;;;;;4986917;28;20033;-72
2021/06/17 06:15:37;;;;;;;5.28;4.50;;;22.10;71.70;;;;;;4992024;28;20474;-73
2021/06/17 06:18:07;;;;;;;8.23;4.15;;;22.30;71.60;;;;;;4992229;28;20033;-73
2021/06/17 06:20:34;;;;;;;11.35;4.07;;;22.30;71.50;;;;;;4991076;28;20504;-72
2021/06/17 06:23:00;;;;;;;7.28;4.03;;;22.50;71.30;;;;;;4975995;28;20418;-68
2021/06/17 06:25:26;;;;;;;6.45;3.83;;;22.50;71.00;;;;;;4991314;28;20026;-69
2021/06/17 06:27:52;;;;;;;7.00;3.90;;;22.70;70.80;;;;;;4992599;28;20033;-68
2021/06/17 06:30:18;;;;;;;10.95;3.60;;;22.80;70.80;;;;;;4992628;28;20035;-71
2021/06/17 06:32:43;;;;;;;5.78;3.85;;;22.80;70.50;;;;;;4993305;28;20730;-70
2021/06/17 06:35:09;;;;;;;6.30;3.67;;;22.90;70.30;;;;;;4991422;28;20041;-70
2021/06/17 06:37:36;;;;;;;7.95;3.63;;;23.00;70.00;;;;;;4992550;28;20026;-70
2021/06/17 06:40:01;;;;;;;6.00;3.53;;;23.10;69.60;;;;;;4993426;28;20086;-69
2021/06/17 06:42:27;;;;;;;6.50;3.78;;;23.20;69.30;;;;;;4992841;28;20359;-69
2021/06/17 06:44:53;;;;;;;11.93;4.15;;;23.30;68.60;;;;;;4991470;28;20030;-70
2021/06/17 06:47:18;;;;;;;5.05;3.85;;;23.20;68.30;;;;;;4992512;28;20026;-66
2021/06/17 06:49:44;;;;;;;5.18;3.97;;;23.20;68.10;;;;;;4992167;28;20041;-70
2021/06/17 06:52:09;;;;;;;5.38;3.90;;;23.10;68.00;;;;;;4991918;28;20371;-69
2021/06/17 06:54:35;;;;;;;9.55;4.35;;;23.10;68.20;;;;;;4990258;28;20390;-69
2021/06/17 06:57:00;;;;;;;8.52;4.20;;;23.10;68.20;;;;;;4992805;28;20037;-67
2021/06/17 06:59:26;;;;;;;11.55;4.38;;;23.10;68.00;;;;;;4992476;28;20105;-69
2021/06/17 07:01:53;;;;;;;11.70;3.75;;;23.30;67.60;;;;;;4992143;28;20037;-68
2021/06/17 07:04:19;;;;;;;8.38;3.90;;;23.40;67.30;;;;;;4990819;28;20475;-66
2021/06/17 07:06:47;;;;;;;6.97;4.05;;;23.50;67.20;;;;;;4991900;28;20109;-68
2021/06/17 07:09:13;;;;;;;9.13;3.92;;;23.70;66.80;;;;;;4992004;28;20022;-67
2021/06/17 07:11:38;;;;;;;5.07;3.30;;;23.80;66.40;;;;;;4975564;28;20015;-70
2021/06/17 07:14:06;;;;;;;8.32;3.80;;;24.00;66.60;;;;;;4989541;28;20029;-70
2021/06/17 07:16:32;;;;;;;6.53;3.40;;;24.30;66.20;;;;;;4991944;28;20032;-69
2021/06/17 07:18:57;;;;;;;5.80;3.50;;;24.50;65.50;;;;;;4992029;28;20035;-68
2021/06/17 07:21:23;;;;;;;8.07;3.17;;;24.70;65.60;;;;;;4992311;28;20042;-69
2021/06/17 07:23:51;;;;;;;7.75;3.22;;;24.70;65.30;;;;;;4991072;28;20034;-69
2021/06/17 07:26:20;;;;;;;4.88;3.67;;;24.80;65.50;;;;;;4991403;28;20073;-69
2021/06/17 07:28:46;;;;;;;4.38;3.63;;;24.90;65.70;;;;;;4991632;28;20106;-68
2021/06/17 07:31:11;;;;;;;5.00;3.33;;;25.00;65.60;;;;;;4991678;28;20066;-65
2021/06/17 07:33:37;;;;;;;8.20;4.15;;;25.20;65.00;;;;;;4991417;28;20100;-68
2021/06/17 07:36:03;;;;;;;6.32;3.40;;;25.10;63.80;;;;;;4990715;28;20530;-69
2021/06/17 07:38:28;;;;;;;5.20;3.13;;;25.00;63.40;;;;;;4992781;28;20084;-69
2021/06/17 07:40:54;;;;;;;5.35;3.25;;;24.90;63.20;;;;;;4988416;28;20030;-68
2021/06/17 07:43:20;;;;;;;7.40;2.92;;;24.80;63.40;;;;;;4990406;28;20042;-69
2021/06/17 07:45:45;;;;;;;4.88;2.92;;;24.80;63.80;;;;;;4990316;28;20045;-68
2021/06/17 07:48:11;;;;;;;6.95;3.63;;;25.00;63.80;;;;;;4991503;28;20023;-69
2021/06/17 07:50:41;;;;;;;9.70;3.42;;;25.00;63.40;;;;;;4991327;28;20157;-68
2021/06/17 07:53:07;;;;;;;5.75;3.20;;;25.00;64.30;;;;;;4992012;28;20037;-68
2021/06/17 07:55:34;;;;;;;4.78;3.05;;;25.20;64.20;;;;;;4989923;28;20463;-69
2021/06/17 07:58:00;;;;;;;6.97;3.38;;;25.30;64.30;;;;;;4991307;28;20034;-69
2021/06/17 08:00:29;;;;;;;7.10;3.28;;;25.40;64.80;;;;;;4991391;28;20506;-69
2021/06/17 08:02:58;;;;;;;7.93;3.42;;;25.50;65.00;;;;;;4991444;28;20533;-68
2021/06/17 08:05:24;;;;;;;3.55;3.03;;;25.60;65.00;;;;;;4990316;28;20478;-69
2021/06/17 08:07:50;;;;;;;9.10;3.08;;;25.70;65.20;;;;;;4991490;28;20348;-68
2021/06/17 08:10:16;;;;;;;4.40;3.17;;;25.80;65.20;;;;;;4991279;28;20106;-69
2021/06/17 08:12:41;;;;;;;3.88;2.90;;;25.80;65.20;;;;;;4987542;28;20034;-70
2021/06/17 08:15:07;;;;;;;6.68;3.00;;;25.90;64.50;;;;;;4985146;28;20050;-68
2021/06/17 08:17:33;;;;;;;4.68;2.88;;;25.90;64.60;;;;;;4989275;28;20058;-68
2021/06/17 08:19:59;;;;;;;6.20;3.20;;;26.00;64.90;;;;;;4990778;28;20101;-66
2021/06/17 08:22:25;;;;;;;7.93;4.15;;;26.10;64.50;;;;;;4990748;28;20065;-67
2021/06/17 08:24:51;;;;;;;6.65;3.05;;;26.20;64.20;;;;;;4989622;28;20034;-69
2021/06/17 08:27:17;;;;;;;6.20;3.03;;;26.20;64.30;;;;;;4990253;28;20041;-69
2021/06/17 08:29:42;;;;;;;5.85;3.17;;;26.30;64.60;;;;;;4988782;28;20451;-68
2021/06/17 08:32:08;;;;;;;4.13;2.60;;;26.40;64.20;;;;;;4990509;28;20022;-68
2021/06/17 08:34:34;;;;;;;5.30;2.70;;;26.50;64.10;;;;;;4989739;28;20481;-68
2021/06/17 08:37:00;;;;;;;3.92;2.90;;;26.70;63.40;;;;;;4990196;28;20065;-65
2021/06/17 08:39:28;;;;;;;4.68;2.53;;;26.80;62.90;;;;;;4988995;28;20121;-67
2021/06/17 08:41:54;;;;;;;4.38;2.63;;;26.90;62.50;;;;;;4994507;28;20114;-67
2021/06/17 08:44:20;;;;;;;5.07;2.42;;;27.00;62.40;;;;;;4989429;28;20101;-66
2021/06/17 08:46:45;;;;;;;9.35;2.92;;;27.20;61.80;;;;;;4990074;28;20051;-68
2021/06/17 08:49:11;;;;;;;6.97;2.40;;;27.30;61.80;;;;;;4991894;28;20053;-69
2021/06/17 08:51:40;;;;;;;7.18;2.53;;;27.40;61.00;;;;;;4994454;28;20030;-68
2021/06/17 08:54:07;;;;;;;5.32;2.35;;;27.50;60.60;;;;;;4993461;28;20490;-67
2021/06/17 08:56:33;;;;;;;8.30;2.80;;;27.70;60.30;;;;;;4993169;28;20390;-66
2021/06/17 08:58:59;;;;;;;11.05;3.22;;;27.80;60.00;;;;;;4995662;28;20034;-68
2021/06/17 09:01:25;;;;;;;4.88;2.40;;;27.90;59.90;;;;;;4994174;28;20030;-66
2021/06/17 09:03:50;;;;;;;5.32;2.30;;;28.00;59.80;;;;;;4993318;28;20390;-66
2021/06/17 09:06:18;;;;;;;7.40;2.63;;;28.00;59.80;;;;;;4993840;28;20552;-68
2021/06/17 09:08:59;;;;;;;4.38;2.22;;;28.10;59.40;;;;;;4993679;28;20018;-69
2021/06/17 09:11:26;;;;;;;6.97;2.70;;;28.20;59.00;;;;;;4993028;28;20022;-68
2021/06/17 09:13:51;;;;;;;6.10;2.72;;;28.30;58.80;;;;;;4989122;28;20440;-68
2021/06/17 09:16:26;;;;;;;4.75;2.50;;;28.40;58.40;;;;;;4984979;28;20143;-66
2021/06/17 09:18:53;;;;;;;9.43;2.60;;;28.50;58.10;;;;;;4992230;28;20027;-68
2021/06/17 09:21:18;;;;;;;8.93;2.22;;;28.60;57.90;;;;;;4993407;28;20030;-67
2021/06/17 09:23:46;;;;;;;5.85;2.30;;;28.70;57.10;;;;;;4994082;28;20042;-68
2021/06/17 09:26:23;;;;;;;10.25;2.05;;;28.80;56.80;;;;;;4992203;28;20022;-68
2021/06/17 09:29:07;;;;;;;7.78;2.17;;;28.90;55.50;;;;;;4993940;28;20033;-69
2021/06/17 09:31:40;;;;;;;5.20;2.05;;;29.00;54.40;;;;;;4988671;28;20022;-67
2021/06/17 09:34:07;;;;;;;8.48;2.17;;;29.10;53.90;;;;;;4996977;28;20034;-66
2021/06/17 09:36:35;;;;;;;8.68;1.95;;;29.30;54.00;;;;;;4985069;28;20054;-67
2021/06/17 09:39:15;;;;;;;5.30;1.70;;;29.50;52.40;;;;;;4993223;28;20026;-67
2021/06/17 09:41:45;;;;;;;7.20;1.63;;;30.10;50.90;;;;;;5007076;28;20030;-68
2021/06/17 09:44:38;;;;;;;3.65;2.03;;;30.60;49.20;;;;;;4992346;28;20121;-69
2021/06/17 09:47:08;;;;;;;6.57;2.00;;;32.20;47.90;;;;;;4993282;28;20057;-68
2021/06/17 09:49:35;;;;;;;3.78;1.65;;;32.90;46.70;;;;;;4990070;28;20042;-68
2021/06/17 09:52:00;;;;;;;5.63;1.55;;;33.30;45.10;;;;;;4993395;28;20030;-68
2021/06/17 09:54:28;;;;;;;7.30;2.00;;;34.00;43.90;;;;;;4991890;28;20077;-65
2021/06/17 09:57:01;;;;;;;8.98;1.80;;;34.70;43.50;;;;;;4986909;28;20057;-66
2021/06/17 09:59:43;;;;;;;6.35;1.65;;;35.20;41.70;;;;;;4992347;28;20022;-67
2021/06/17 10:02:12;;;;;;;3.78;1.67;;;35.60;41.30;;;;;;4991536;28;20097;-66
2021/06/17 10:04:38;;;;;;;9.50;1.50;;;35.80;40.30;;;;;;4991565;28;20022;-67
2021/06/17 10:07:04;;;;;;;7.32;1.95;;;35.80;39.90;;;;;;4992206;28;20038;-69
2021/06/17 10:09:30;;;;;;;7.93;2.00;;;35.80;40.20;;;;;;4991167;28;20095;-68
2021/06/17 10:11:57;;;;;;;5.80;2.22;;;35.80;40.50;;;;;;4992389;28;20510;-69
2021/06/17 10:14:23;;;;;;;5.13;1.70;;;35.80;40.80;;;;;;4992230;28;20018;-67
2021/06/17 10:16:49;;;;;;;2.85;2.00;;;35.80;41.20;;;;;;4992620;28;20026;-67
2021/06/17 10:19:18;;;;;;;6.10;1.90;;;35.80;41.90;;;;;;4992662;28;20085;-68
2021/06/17 10:21:45;;;;;;;5.95;1.70;;;35.80;41.70;;;;;;4991744;28;20026;-69
2021/06/17 10:24:19;;;;;;;4.57;1.80;;;35.80;41.40;;;;;;4991764;28;20442;-67
2021/06/17 10:26:51;;;;;;;4.57;1.92;;;35.80;41.10;;;;;;4992767;28;20430;-68
2021/06/17 10:29:32;;;;;;;2.25;1.80;;;35.50;41.00;;;;;;4992251;28;20065;-68
2021/06/17 10:31:58;;;;;;;2.00;1.60;;;35.50;41.50;;;;;;4992815;28;20095;-68
2021/06/17 10:34:24;;;;;;;2.97;1.55;;;35.40;41.20;;;;;;4991725;28;20102;-68
2021/06/17 10:37:06;;;;;;;2.85;1.45;;;35.20;41.10;;;;;;4992275;28;20101;-67
2021/06/17 10:39:36;;;;;;;2.80;1.70;;;34.90;41.20;;;;;;4991288;28;20033;-68
2021/06/17 10:42:05;;;;;;;2.30;1.55;;;34.70;41.30;;;;;;4991912;28;20030;-68
2021/06/17 10:44:48;;;;;;;3.60;1.60;;;34.50;41.00;;;;;;4991613;28;20041;-69
2021/06/17 10:47:49;;;;;;;2.20;1.42;;;34.30;40.90;;;;;;4990392;28;20022;-66
2021/06/17 10:50:19;;;;;;;3.63;1.48;;;34.20;41.40;;;;;;4987283;28;20168;-68
2021/06/17 10:52:45;;;;;;;2.97;1.63;;;34.10;41.50;;;;;;4992427;28;20037;-69
2021/06/17 10:55:13;;;;;;;3.97;1.65;;;34.00;41.40;;;;;;4991188;28;20094;-68
2021/06/17 11:00:23;;;;;;;;;;;33.80;41.20;;;;;;4978711;28;20027;-65
2021/06/17 11:02:54;;;;;;;3.30;1.50;;;33.70;42.30;;;;;;4990790;28;20359;-68
2021/06/17 11:05:35;;;;;;;3.40;1.33;;;33.60;41.90;;;;;;4991415;28;20034;-69
2021/06/17 11:08:26;;;;;;;2.53;1.42;;;33.50;42.40;;;;;;4991527;28;20025;-67
2021/06/17 11:10:52;;;;;;;8.13;2.00;;;33.40;42.20;;;;;;4989699;28;20035;-69
2021/06/17 11:13:42;;;;;;;2.63;1.60;;;33.40;41.60;;;;;;4991579;28;20534;-69
2021/06/17 11:16:17;;;;;;;5.47;1.73;;;33.30;41.60;;;;;;4989447;28;20057;-67
2021/06/17 11:23:53;;;;;;;2.35;1.52;;;33.30;39.70;;;;;;4992253;28;20027;-69
2021/06/17 11:26:37;;;;;;;4.82;1.50;;;33.30;39.80;;;;;;4989462;28;20030;-69
2021/06/17 11:29:12;;;;;;;2.13;1.52;;;33.30;40.10;;;;;;4991277;28;20143;-66
2021/06/17 11:31:46;;;;;;;3.55;1.38;;;33.30;39.20;;;;;;4990773;28;20022;-69
2021/06/17 11:34:13;;;;;;;3.53;1.30;;;33.30;40.60;;;;;;4991101;28;20557;-68
2021/06/17 11:36:49;;;;;;;2.88;1.45;;;33.30;40.70;;;;;;4991046;28;20026;-69
2021/06/17 11:39:24;;;;;;;2.65;1.20;;;33.20;40.00;;;;;;4991685;28;20054;-69
2021/06/17 11:41:50;;;;;;;2.25;1.33;;;33.20;40.40;;;;;;4990941;28;20030;-68
2021/06/17 11:44:24;;;;;;;3.03;1.60;;;33.20;40.70;;;;;;4990453;28;20103;-70
2021/06/17 11:46:51;;;;;;;4.30;1.60;;;33.20;39.70;;;;;;4991048;28;20487;-66
2021/06/17 11:49:18;;;;;;;4.32;1.50;;;33.30;40.30;;;;;;4989642;28;20057;-69
2021/06/17 11:51:52;;;;;;;2.45;1.60;;;33.30;40.70;;;;;;4991334;28;20026;-68
2021/06/17 11:54:20;;;;;;;4.97;1.60;;;33.30;40.00;;;;;;4990048;28;20030;-66
2021/06/17 11:56:54;;;;;;;7.38;1.67;;;33.30;40.70;;;;;;4990767;28;20125;-68
2021/06/17 11:59:26;;;;;;;3.42;1.60;;;33.40;40.10;;;;;;4985910;28;20061;-67
2021/06/17 12:02:19;;;;;;;1.65;1.50;;;33.50;39.90;;;;;;4991000;28;20033;-69
2021/06/17 12:05:08;;;;;;;4.20;1.70;;;33.50;40.20;;;;;;4989608;28;20057;-68
2021/06/17 12:07:44;;;;;;;4.97;1.80;;;33.50;41.20;;;;;;4989211;28;20057;-69
2021/06/17 12:10:19;;;;;;;4.00;1.63;;;33.50;40.30;;;;;;4989769;28;20041;-66
2021/06/17 12:13:08;;;;;;;2.58;1.83;;;33.40;39.60;;;;;;4995130;28;20042;-69
2021/06/17 12:15:37;;;;;;;3.38;1.70;;;33.40;40.10;;;;;;4991649;28;20049;-69
2021/06/17 12:18:09;;;;;;;6.38;1.90;;;33.50;40.20;;;;;;4990402;28;20080;-69
2021/06/17 12:20:43;;;;;;;4.05;1.63;;;33.40;40.00;;;;;;4990589;28;20038;-66
2021/06/17 12:23:20;;;;;;;3.78;1.85;;;33.40;40.50;;;;;;4990487;28;20038;-69
2021/06/17 12:26:05;;;;;;;2.88;1.70;;;33.40;40.20;;;;;;4989480;28;20497;-69
2021/06/17 12:28:47;;;;;;;3.20;1.90;;;33.40;40.70;;;;;;4990520;28;20368;-67
2021/06/17 12:31:23;;;;;;;4.35;1.80;;;33.40;40.60;;;;;;4990081;28;20165;-67
2021/06/17 12:33:49;;;;;;;8.70;1.90;;;33.40;40.90;;;;;;4994513;28;20030;-67
2021/06/17 12:36:17;;;;;;;4.03;2.03;;;33.30;40.90;;;;;;4990133;28;20391;-67
2021/06/17 12:38:43;;;;;;;4.68;1.80;;;33.30;41.00;;;;;;4990791;28;20029;-66
2021/06/17 12:41:20;;;;;;;5.88;2.30;;;33.30;41.80;;;;;;4990451;28;20510;-66
2021/06/17 12:43:54;;;;;;;2.53;1.77;;;33.20;40.70;;;;;;4990829;28;20034;-67
2021/06/17 12:46:25;;;;;;;2.95;2.03;;;33.20;40.60;;;;;;4988912;28;20431;-67
2021/06/17 12:54:37;;;;;;;6.55;2.25;;;32.90;39.80;;;;;;4989515;28;20089;-67
2021/06/17 12:57:13;;;;;;;5.50;1.77;;;32.80;40.10;;;;;;4989540;28;20053;-67
2021/06/17 12:59:43;;;;;;;5.18;1.98;;;32.70;40.30;;;;;;4982099;28;20027;-67
2021/06/17 13:02:22;;;;;;;5.65;2.00;;;32.70;40.20;;;;;;5000375;28;20395;-67
2021/06/17 13:05:06;;;;;;;4.30;1.88;;;32.60;40.00;;;;;;4989351;28;20034;-67
2021/06/17 13:07:33;;;;;;;1.90;1.60;;;32.50;40.00;;;;;;4990264;28;20140;-67
2021/06/17 13:10:17;;;;;;;3.30;1.65;;;32.50;40.30;;;;;;4990691;28;20110;-67
2021/06/17 13:12:43;;;;;;;3.22;1.92;;;32.30;40.20;;;;;;4990512;28;20120;-67
2021/06/17 13:15:10;;;;;;;3.70;1.80;;;32.30;40.90;;;;;;4989494;28;20030;-67
2021/06/17 13:17:44;;;;;;;3.25;1.75;;;32.30;40.80;;;;;;4989947;28;20037;-67